BDB weather

Bundaberg Airport
Bundaberg, Queensland, Australia

Public forecast

Using degrees Celsius for public forecast. Weather courtesy of forecast.io.

METAR (pilot weather report)

Retrieved 2019/03/18 17:00 UTC (18 minutes ago):

YBUD 181700Z AUTO 24004KT 9999 // NCD 21/21 Q1010

TAF (pilot weather forecast)

Closest forecast is Gladstone Airport, 86.3 nm (159.8 km) NW. Retrieved 2019/03/18 12:00 UTC (5 hours ago):

TAF YGLA 181001Z 1812/1824 20004KT 9999 SCT015 FM182300 07005KT 9999 FEW025